sensor_id;sensor_type;location;lat;lon;timestamp;P1;durP1;ratioP1;P2;durP2;ratioP2
56567;SDS011;42456;49.956;20.004;2023-04-25T00:02:11;12.00;;;7.30;;
56567;SDS011;42456;49.956;20.004;2023-04-25T00:04:38;12.90;;;7.70;;
56567;SDS011;42456;49.956;20.004;2023-04-25T00:07:06;11.30;;;6.90;;
56567;SDS011;42456;49.956;20.004;2023-04-25T00:09:32;11.40;;;6.60;;
56567;SDS011;42456;49.956;20.004;2023-04-25T00:11:59;11.10;;;6.10;;
56567;SDS011;42456;49.956;20.004;2023-04-25T00:14:28;8.20;;;5.00;;
56567;SDS011;42456;49.956;20.004;2023-04-25T00:16:55;5.80;;;3.70;;
56567;SDS011;42456;49.956;20.004;2023-04-25T00:19:22;7.10;;;3.60;;
56567;SDS011;42456;49.956;20.004;2023-04-25T00:21:49;6.00;;;3.50;;
56567;SDS011;42456;49.956;20.004;2023-04-25T00:24:16;5.10;;;3.40;;
56567;SDS011;42456;49.956;20.004;2023-04-25T00:26:43;5.80;;;3.20;;
56567;SDS011;42456;49.956;20.004;2023-04-25T00:29:09;4.60;;;3.30;;
56567;SDS011;42456;49.956;20.004;2023-04-25T00:31:36;6.80;;;3.70;;
56567;SDS011;42456;49.956;20.004;2023-04-25T00:34:03;5.40;;;3.20;;
56567;SDS011;42456;49.956;20.004;2023-04-25T00:36:30;5.50;;;3.10;;
56567;SDS011;42456;49.956;20.004;2023-04-25T00:38:57;4.70;;;3.20;;
56567;SDS011;42456;49.956;20.004;2023-04-25T00:41:25;6.10;;;3.20;;
56567;SDS011;42456;49.956;20.004;2023-04-25T00:43:53;7.20;;;3.50;;
56567;SDS011;42456;49.956;20.004;2023-04-25T00:46:22;7.70;;;3.70;;
56567;SDS011;42456;49.956;20.004;2023-04-25T00:48:48;6.30;;;3.60;;
56567;SDS011;42456;49.956;20.004;2023-04-25T00:51:21;6.40;;;3.70;;
56567;SDS011;42456;49.956;20.004;2023-04-25T00:53:48;7.10;;;4.00;;
56567;SDS011;42456;49.956;20.004;2023-04-25T00:56:17;8.00;;;3.70;;
56567;SDS011;42456;49.956;20.004;2023-04-25T00:58:44;8.20;;;4.70;;
56567;SDS011;42456;49.956;20.004;2023-04-25T01:01:11;8.00;;;4.20;;
56567;SDS011;42456;49.956;20.004;2023-04-25T01:03:39;9.40;;;4.90;;
56567;SDS011;42456;49.956;20.004;2023-04-25T01:06:10;8.50;;;4.80;;
56567;SDS011;42456;49.956;20.004;2023-04-25T01:08:38;7.10;;;4.80;;
56567;SDS011;42456;49.956;20.004;2023-04-25T01:11:05;7.40;;;4.40;;
56567;SDS011;42456;49.956;20.004;2023-04-25T01:13:33;8.40;;;4.50;;
56567;SDS011;42456;49.956;20.004;2023-04-25T01:16:01;6.60;;;4.20;;
56567;SDS011;42456;49.956;20.004;2023-04-25T01:18:29;7.30;;;4.20;;
56567;SDS011;42456;49.956;20.004;2023-04-25T01:20:56;5.60;;;3.70;;
56567;SDS011;42456;49.956;20.004;2023-04-25T01:23:33;7.20;;;4.10;;
56567;SDS011;42456;49.956;20.004;2023-04-25T01:26:00;6.20;;;3.90;;
56567;SDS011;42456;49.956;20.004;2023-04-25T01:28:27;8.30;;;4.80;;
56567;SDS011;42456;49.956;20.004;2023-04-25T01:30:54;8.80;;;4.70;;
56567;SDS011;42456;49.956;20.004;2023-04-25T01:33:22;8.60;;;4.40;;
56567;SDS011;42456;49.956;20.004;2023-04-25T01:35:49;10.00;;;5.00;;
56567;SDS011;42456;49.956;20.004;2023-04-25T01:38:16;10.70;;;4.80;;
56567;SDS011;42456;49.956;20.004;2023-04-25T01:40:43;8.70;;;5.00;;
56567;SDS011;42456;49.956;20.004;2023-04-25T01:43:11;8.00;;;4.20;;
56567;SDS011;42456;49.956;20.004;2023-04-25T01:45:41;10.40;;;5.00;;
56567;SDS011;42456;49.956;20.004;2023-04-25T01:48:08;11.90;;;5.60;;
56567;SDS011;42456;49.956;20.004;2023-04-25T01:50:37;8.80;;;5.50;;
56567;SDS011;42456;49.956;20.004;2023-04-25T01:53:06;10.20;;;5.00;;
56567;SDS011;42456;49.956;20.004;2023-04-25T01:55:33;10.60;;;5.70;;
56567;SDS011;42456;49.956;20.004;2023-04-25T01:58:00;10.40;;;5.30;;
56567;SDS011;42456;49.956;20.004;2023-04-25T02:00:28;9.30;;;5.70;;
56567;SDS011;42456;49.956;20.004;2023-04-25T02:02:59;11.10;;;5.50;;
56567;SDS011;42456;49.956;20.004;2023-04-25T02:05:26;10.20;;;6.00;;
56567;SDS011;42456;49.956;20.004;2023-04-25T02:07:52;10.10;;;5.60;;
56567;SDS011;42456;49.956;20.004;2023-04-25T02:10:19;9.80;;;5.90;;
56567;SDS011;42456;49.956;20.004;2023-04-25T02:12:46;9.50;;;5.20;;
56567;SDS011;42456;49.956;20.004;2023-04-25T02:15:13;11.40;;;6.40;;
56567;SDS011;42456;49.956;20.004;2023-04-25T02:17:40;10.90;;;5.70;;
56567;SDS011;42456;49.956;20.004;2023-04-25T02:20:07;11.70;;;5.80;;
56567;SDS011;42456;49.956;20.004;2023-04-25T02:22:34;8.60;;;5.60;;
56567;SDS011;42456;49.956;20.004;2023-04-25T02:25:02;11.00;;;6.80;;
56567;SDS011;42456;49.956;20.004;2023-04-25T02:27:30;12.10;;;6.50;;
56567;SDS011;42456;49.956;20.004;2023-04-25T02:29:57;12.70;;;6.90;;
56567;SDS011;42456;49.956;20.004;2023-04-25T02:32:24;11.30;;;6.60;;
56567;SDS011;42456;49.956;20.004;2023-04-25T02:34:51;11.80;;;6.70;;
56567;SDS011;42456;49.956;20.004;2023-04-25T02:37:18;11.40;;;5.60;;
56567;SDS011;42456;49.956;20.004;2023-04-25T02:39:44;11.60;;;6.40;;
56567;SDS011;42456;49.956;20.004;2023-04-25T02:42:11;11.00;;;5.90;;
56567;SDS011;42456;49.956;20.004;2023-04-25T02:44:38;10.40;;;6.00;;
56567;SDS011;42456;49.956;20.004;2023-04-25T02:47:05;9.80;;;5.80;;
56567;SDS011;42456;49.956;20.004;2023-04-25T02:49:32;9.10;;;5.10;;
56567;SDS011;42456;49.956;20.004;2023-04-25T02:51:59;7.70;;;5.20;;
56567;SDS011;42456;49.956;20.004;2023-04-25T02:54:26;7.60;;;5.20;;
56567;SDS011;42456;49.956;20.004;2023-04-25T02:56:52;8.20;;;5.20;;
56567;SDS011;42456;49.956;20.004;2023-04-25T02:59:19;9.00;;;5.30;;
56567;SDS011;42456;49.956;20.004;2023-04-25T03:01:46;8.60;;;4.70;;
56567;SDS011;42456;49.956;20.004;2023-04-25T03:04:13;10.90;;;5.50;;
56567;SDS011;42456;49.956;20.004;2023-04-25T03:06:39;8.30;;;4.90;;
56567;SDS011;42456;49.956;20.004;2023-04-25T03:09:06;10.20;;;5.20;;
56567;SDS011;42456;49.956;20.004;2023-04-25T03:11:33;9.10;;;5.40;;
56567;SDS011;42456;49.956;20.004;2023-04-25T03:14:00;9.00;;;5.30;;
56567;SDS011;42456;49.956;20.004;2023-04-25T03:16:27;11.20;;;5.70;;
56567;SDS011;42456;49.956;20.004;2023-04-25T03:18:53;9.30;;;5.40;;
56567;SDS011;42456;49.956;20.004;2023-04-25T03:21:20;10.70;;;5.80;;
56567;SDS011;42456;49.956;20.004;2023-04-25T03:23:47;12.90;;;6.70;;
56567;SDS011;42456;49.956;20.004;2023-04-25T03:26:14;11.00;;;6.50;;
56567;SDS011;42456;49.956;20.004;2023-04-25T03:28:41;11.70;;;6.50;;
56567;SDS011;42456;49.956;20.004;2023-04-25T03:31:08;14.10;;;7.00;;
56567;SDS011;42456;49.956;20.004;2023-04-25T03:33:35;12.60;;;7.20;;
56567;SDS011;42456;49.956;20.004;2023-04-25T03:36:01;11.50;;;6.50;;
56567;SDS011;42456;49.956;20.004;2023-04-25T03:38:28;11.10;;;7.10;;
56567;SDS011;42456;49.956;20.004;2023-04-25T03:40:55;11.80;;;6.60;;
56567;SDS011;42456;49.956;20.004;2023-04-25T03:43:22;13.40;;;7.70;;
56567;SDS011;42456;49.956;20.004;2023-04-25T03:45:49;14.90;;;8.40;;
56567;SDS011;42456;49.956;20.004;2023-04-25T03:48:16;14.10;;;8.10;;
56567;SDS011;42456;49.956;20.004;2023-04-25T03:50:43;14.60;;;8.80;;
56567;SDS011;42456;49.956;20.004;2023-04-25T03:53:10;14.20;;;8.20;;
56567;SDS011;42456;49.956;20.004;2023-04-25T03:55:36;14.10;;;7.60;;
56567;SDS011;42456;49.956;20.004;2023-04-25T03:58:04;14.60;;;7.70;;
56567;SDS011;42456;49.956;20.004;2023-04-25T04:00:31;14.90;;;7.70;;
56567;SDS011;42456;49.956;20.004;2023-04-25T04:02:58;13.50;;;7.80;;
56567;SDS011;42456;49.956;20.004;2023-04-25T04:05:25;12.00;;;7.00;;
56567;SDS011;42456;49.956;20.004;2023-04-25T04:07:52;12.50;;;7.50;;
56567;SDS011;42456;49.956;20.004;2023-04-25T04:10:18;17.00;;;8.60;;
56567;SDS011;42456;49.956;20.004;2023-04-25T04:12:45;16.80;;;8.60;;
56567;SDS011;42456;49.956;20.004;2023-04-25T04:15:12;13.90;;;8.00;;
56567;SDS011;42456;49.956;20.004;2023-04-25T04:17:39;15.10;;;8.30;;
56567;SDS011;42456;49.956;20.004;2023-04-25T04:20:07;15.80;;;9.60;;
56567;SDS011;42456;49.956;20.004;2023-04-25T04:22:34;16.40;;;9.70;;
56567;SDS011;42456;49.956;20.004;2023-04-25T04:25:02;14.50;;;8.70;;
56567;SDS011;42456;49.956;20.004;2023-04-25T04:27:29;16.90;;;10.10;;
56567;SDS011;42456;49.956;20.004;2023-04-25T04:29:56;16.60;;;9.30;;
56567;SDS011;42456;49.956;20.004;2023-04-25T04:32:23;14.50;;;9.10;;
56567;SDS011;42456;49.956;20.004;2023-04-25T04:34:51;14.60;;;9.20;;
56567;SDS011;42456;49.956;20.004;2023-04-25T04:37:21;15.70;;;9.80;;
56567;SDS011;42456;49.956;20.004;2023-04-25T04:39:49;14.30;;;8.80;;
56567;SDS011;42456;49.956;20.004;2023-04-25T04:42:16;14.90;;;8.70;;
56567;SDS011;42456;49.956;20.004;2023-04-25T04:44:43;12.90;;;7.80;;
56567;SDS011;42456;49.956;20.004;2023-04-25T04:47:11;13.10;;;8.00;;
56567;SDS011;42456;49.956;20.004;2023-04-25T04:49:40;12.60;;;7.90;;
56567;SDS011;42456;49.956;20.004;2023-04-25T04:52:07;12.20;;;7.50;;
56567;SDS011;42456;49.956;20.004;2023-04-25T04:54:34;14.80;;;7.80;;
56567;SDS011;42456;49.956;20.004;2023-04-25T04:57:01;13.60;;;8.20;;
56567;SDS011;42456;49.956;20.004;2023-04-25T04:59:28;12.20;;;7.40;;
56567;SDS011;42456;49.956;20.004;2023-04-25T05:01:55;11.90;;;7.30;;
56567;SDS011;42456;49.956;20.004;2023-04-25T05:04:22;12.60;;;7.20;;
56567;SDS011;42456;49.956;20.004;2023-04-25T05:06:49;12.90;;;7.90;;
56567;SDS011;42456;49.956;20.004;2023-04-25T05:09:16;12.30;;;8.10;;
56567;SDS011;42456;49.956;20.004;2023-04-25T05:11:42;14.00;;;9.20;;
56567;SDS011;42456;49.956;20.004;2023-04-25T05:14:09;16.90;;;9.00;;
56567;SDS011;42456;49.956;20.004;2023-04-25T05:16:36;15.20;;;8.60;;
56567;SDS011;42456;49.956;20.004;2023-04-25T05:19:03;14.90;;;9.00;;
56567;SDS011;42456;49.956;20.004;2023-04-25T05:21:30;13.90;;;8.00;;
56567;SDS011;42456;49.956;20.004;2023-04-25T05:23:57;13.10;;;7.80;;
56567;SDS011;42456;49.956;20.004;2023-04-25T05:26:24;17.70;;;8.80;;
56567;SDS011;42456;49.956;20.004;2023-04-25T05:28:51;14.60;;;7.40;;
56567;SDS011;42456;49.956;20.004;2023-04-25T05:31:18;11.90;;;7.30;;
56567;SDS011;42456;49.956;20.004;2023-04-25T05:33:45;13.60;;;7.50;;
56567;SDS011;42456;49.956;20.004;2023-04-25T05:36:11;16.70;;;7.90;;
56567;SDS011;42456;49.956;20.004;2023-04-25T05:38:38;11.80;;;7.20;;
56567;SDS011;42456;49.956;20.004;2023-04-25T05:41:05;13.50;;;7.30;;
56567;SDS011;42456;49.956;20.004;2023-04-25T05:43:32;11.60;;;6.90;;
56567;SDS011;42456;49.956;20.004;2023-04-25T05:45:58;13.20;;;7.60;;
56567;SDS011;42456;49.956;20.004;2023-04-25T05:48:26;10.60;;;6.10;;
56567;SDS011;42456;49.956;20.004;2023-04-25T05:50:53;11.70;;;6.70;;
56567;SDS011;42456;49.956;20.004;2023-04-25T05:53:20;9.80;;;6.00;;
56567;SDS011;42456;49.956;20.004;2023-04-25T05:55:48;11.50;;;6.40;;
56567;SDS011;42456;49.956;20.004;2023-04-25T05:58:15;10.60;;;5.90;;
56567;SDS011;42456;49.956;20.004;2023-04-25T06:00:41;12.30;;;6.80;;
56567;SDS011;42456;49.956;20.004;2023-04-25T06:03:08;15.10;;;6.50;;
56567;SDS011;42456;49.956;20.004;2023-04-25T06:05:44;15.00;;;7.30;;
56567;SDS011;42456;49.956;20.004;2023-04-25T06:08:11;11.10;;;6.50;;
56567;SDS011;42456;49.956;20.004;2023-04-25T06:10:38;13.80;;;6.30;;
56567;SDS011;42456;49.956;20.004;2023-04-25T06:13:05;12.90;;;7.30;;
56567;SDS011;42456;49.956;20.004;2023-04-25T06:15:32;10.50;;;6.50;;
56567;SDS011;42456;49.956;20.004;2023-04-25T06:17:58;12.40;;;7.10;;
56567;SDS011;42456;49.956;20.004;2023-04-25T06:20:25;14.20;;;7.10;;
56567;SDS011;42456;49.956;20.004;2023-04-25T06:22:52;14.50;;;7.30;;
56567;SDS011;42456;49.956;20.004;2023-04-25T06:25:19;10.30;;;6.70;;
56567;SDS011;42456;49.956;20.004;2023-04-25T06:27:46;11.60;;;6.70;;
56567;SDS011;42456;49.956;20.004;2023-04-25T06:30:13;9.30;;;5.70;;
56567;SDS011;42456;49.956;20.004;2023-04-25T06:32:40;7.80;;;4.70;;
56567;SDS011;42456;49.956;20.004;2023-04-25T06:35:07;12.50;;;7.10;;
56567;SDS011;42456;49.956;20.004;2023-04-25T06:37:34;11.50;;;6.80;;
56567;SDS011;42456;49.956;20.004;2023-04-25T06:40:01;13.70;;;6.90;;
56567;SDS011;42456;49.956;20.004;2023-04-25T06:42:28;8.40;;;5.20;;
56567;SDS011;42456;49.956;20.004;2023-04-25T06:44:55;10.10;;;4.70;;
56567;SDS011;42456;49.956;20.004;2023-04-25T06:47:22;9.80;;;4.50;;
56567;SDS011;42456;49.956;20.004;2023-04-25T06:49:49;9.50;;;4.90;;
56567;SDS011;42456;49.956;20.004;2023-04-25T06:52:17;10.90;;;6.10;;
56567;SDS011;42456;49.956;20.004;2023-04-25T06:54:44;11.70;;;6.40;;
56567;SDS011;42456;49.956;20.004;2023-04-25T06:57:11;11.20;;;6.70;;
56567;SDS011;42456;49.956;20.004;2023-04-25T06:59:39;11.60;;;6.90;;
56567;SDS011;42456;49.956;20.004;2023-04-25T07:02:06;10.20;;;5.40;;
56567;SDS011;42456;49.956;20.004;2023-04-25T07:04:32;9.70;;;5.40;;
56567;SDS011;42456;49.956;20.004;2023-04-25T07:07:00;9.30;;;5.60;;
56567;SDS011;42456;49.956;20.004;2023-04-25T07:09:29;8.40;;;5.80;;
56567;SDS011;42456;49.956;20.004;2023-04-25T07:11:56;9.60;;;5.50;;
56567;SDS011;42456;49.956;20.004;2023-04-25T07:14:23;8.20;;;4.70;;
56567;SDS011;42456;49.956;20.004;2023-04-25T07:16:50;7.40;;;4.70;;
56567;SDS011;42456;49.956;20.004;2023-04-25T07:19:18;8.40;;;5.20;;
56567;SDS011;42456;49.956;20.004;2023-04-25T07:21:45;8.70;;;5.00;;
56567;SDS011;42456;49.956;20.004;2023-04-25T07:24:11;6.70;;;4.20;;
56567;SDS011;42456;49.956;20.004;2023-04-25T07:26:38;10.30;;;4.90;;
56567;SDS011;42456;49.956;20.004;2023-04-25T07:29:05;8.40;;;4.40;;
56567;SDS011;42456;49.956;20.004;2023-04-25T07:31:32;12.10;;;5.70;;
56567;SDS011;42456;49.956;20.004;2023-04-25T07:34:00;9.50;;;5.20;;
56567;SDS011;42456;49.956;20.004;2023-04-25T07:36:27;12.40;;;6.50;;
56567;SDS011;42456;49.956;20.004;2023-04-25T07:38:54;11.30;;;6.90;;
56567;SDS011;42456;49.956;20.004;2023-04-25T07:41:21;10.10;;;6.10;;
56567;SDS011;42456;49.956;20.004;2023-04-25T07:43:48;10.60;;;5.10;;
56567;SDS011;42456;49.956;20.004;2023-04-25T07:46:15;9.00;;;5.00;;
56567;SDS011;42456;49.956;20.004;2023-04-25T07:48:42;9.90;;;5.20;;
56567;SDS011;42456;49.956;20.004;2023-04-25T07:51:09;11.20;;;4.70;;
56567;SDS011;42456;49.956;20.004;2023-04-25T07:53:36;16.60;;;5.50;;
56567;SDS011;42456;49.956;20.004;2023-04-25T07:56:04;16.50;;;5.80;;
56567;SDS011;42456;49.956;20.004;2023-04-25T07:58:31;14.70;;;4.80;;
56567;SDS011;42456;49.956;20.004;2023-04-25T08:00:58;12.50;;;4.80;;
56567;SDS011;42456;49.956;20.004;2023-04-25T08:03:25;15.80;;;5.80;;
56567;SDS011;42456;49.956;20.004;2023-04-25T08:05:52;16.00;;;5.20;;
56567;SDS011;42456;49.956;20.004;2023-04-25T08:08:19;15.50;;;5.80;;
56567;SDS011;42456;49.956;20.004;2023-04-25T08:10:46;19.70;;;6.80;;
56567;SDS011;42456;49.956;20.004;2023-04-25T08:13:14;13.50;;;5.20;;
56567;SDS011;42456;49.956;20.004;2023-04-25T08:15:41;10.40;;;4.70;;
56567;SDS011;42456;49.956;20.004;2023-04-25T08:18:08;8.70;;;3.70;;
56567;SDS011;42456;49.956;20.004;2023-04-25T08:20:35;10.50;;;5.20;;
56567;SDS011;42456;49.956;20.004;2023-04-25T08:23:02;9.20;;;4.20;;
56567;SDS011;42456;49.956;20.004;2023-04-25T08:25:29;8.70;;;3.70;;
56567;SDS011;42456;49.956;20.004;2023-04-25T08:27:55;6.60;;;3.70;;
56567;SDS011;42456;49.956;20.004;2023-04-25T08:30:23;5.80;;;3.40;;
56567;SDS011;42456;49.956;20.004;2023-04-25T08:32:50;9.10;;;4.10;;
56567;SDS011;42456;49.956;20.004;2023-04-25T08:35:17;7.80;;;3.80;;
56567;SDS011;42456;49.956;20.004;2023-04-25T08:37:44;6.20;;;3.80;;
56567;SDS011;42456;49.956;20.004;2023-04-25T08:40:12;5.60;;;3.80;;
56567;SDS011;42456;49.956;20.004;2023-04-25T08:42:41;6.80;;;3.60;;
56567;SDS011;42456;49.956;20.004;2023-04-25T08:45:09;6.70;;;4.10;;
56567;SDS011;42456;49.956;20.004;2023-04-25T08:47:37;8.00;;;3.80;;
56567;SDS011;42456;49.956;20.004;2023-04-25T08:50:06;5.00;;;3.80;;
56567;SDS011;42456;49.956;20.004;2023-04-25T08:52:37;5.80;;;3.90;;
56567;SDS011;42456;49.956;20.004;2023-04-25T08:55:06;5.30;;;3.40;;
56567;SDS011;42456;49.956;20.004;2023-04-25T08:57:35;7.00;;;4.00;;
56567;SDS011;42456;49.956;20.004;2023-04-25T09:00:03;6.30;;;4.00;;
56567;SDS011;42456;49.956;20.004;2023-04-25T09:02:30;7.80;;;3.80;;
56567;SDS011;42456;49.956;20.004;2023-04-25T09:04:58;6.80;;;4.00;;
56567;SDS011;42456;49.956;20.004;2023-04-25T09:07:26;7.00;;;3.80;;
56567;SDS011;42456;49.956;20.004;2023-04-25T09:09:52;6.10;;;3.70;;
56567;SDS011;42456;49.956;20.004;2023-04-25T09:12:19;5.90;;;4.00;;
56567;SDS011;42456;49.956;20.004;2023-04-25T09:17:32;7.90;;;5.10;;
56567;SDS011;42456;49.956;20.004;2023-04-25T09:20:32;10.40;;;6.30;;
56567;SDS011;42456;49.956;20.004;2023-04-25T09:23:02;10.50;;;5.20;;
56567;SDS011;42456;49.956;20.004;2023-04-25T09:25:33;8.30;;;5.00;;
56567;SDS011;42456;49.956;20.004;2023-04-25T09:28:05;8.90;;;5.10;;
56567;SDS011;42456;49.956;20.004;2023-04-25T09:30:34;9.00;;;4.20;;
56567;SDS011;42456;49.956;20.004;2023-04-25T09:33:09;7.20;;;4.80;;
56567;SDS011;42456;49.956;20.004;2023-04-25T09:35:38;10.10;;;5.70;;
56567;SDS011;42456;49.956;20.004;2023-04-25T09:38:08;9.20;;;5.70;;
56567;SDS011;42456;49.956;20.004;2023-04-25T09:40:39;12.80;;;6.60;;
56567;SDS011;42456;49.956;20.004;2023-04-25T09:45:51;12.20;;;5.70;;
56567;SDS011;42456;49.956;20.004;2023-04-25T09:48:24;13.40;;;6.60;;
56567;SDS011;42456;49.956;20.004;2023-04-25T09:51:11;10.90;;;5.60;;
56567;SDS011;42456;49.956;20.004;2023-04-25T09:53:43;11.60;;;6.70;;
56567;SDS011;42456;49.956;20.004;2023-04-25T09:56:18;10.60;;;5.40;;
56567;SDS011;42456;49.956;20.004;2023-04-25T09:58:46;9.80;;;6.00;;
56567;SDS011;42456;49.956;20.004;2023-04-25T10:03:43;11.50;;;5.70;;
56567;SDS011;42456;49.956;20.004;2023-04-25T10:06:17;10.10;;;6.10;;
56567;SDS011;42456;49.956;20.004;2023-04-25T10:08:47;9.70;;;5.70;;
56567;SDS011;42456;49.956;20.004;2023-04-25T10:11:17;10.20;;;6.00;;
56567;SDS011;42456;49.956;20.004;2023-04-25T10:13:44;10.20;;;6.00;;
56567;SDS011;42456;49.956;20.004;2023-04-25T10:16:14;11.00;;;6.80;;
56567;SDS011;42456;49.956;20.004;2023-04-25T10:18:42;27.50;;;10.60;;
56567;SDS011;42456;49.956;20.004;2023-04-25T10:21:09;34.60;;;13.20;;
56567;SDS011;42456;49.956;20.004;2023-04-25T10:23:37;38.70;;;14.40;;
56567;SDS011;42456;49.956;20.004;2023-04-25T10:26:04;17.20;;;8.00;;
56567;SDS011;42456;49.956;20.004;2023-04-25T10:28:53;13.10;;;6.50;;
56567;SDS011;42456;49.956;20.004;2023-04-25T10:31:22;9.20;;;5.20;;
56567;SDS011;42456;49.956;20.004;2023-04-25T10:33:49;10.30;;;6.00;;
56567;SDS011;42456;49.956;20.004;2023-04-25T10:36:20;9.60;;;5.00;;
56567;SDS011;42456;49.956;20.004;2023-04-25T10:38:49;6.80;;;4.60;;
56567;SDS011;42456;49.956;20.004;2023-04-25T10:41:17;6.60;;;4.20;;
56567;SDS011;42456;49.956;20.004;2023-04-25T10:43:46;8.60;;;4.90;;
56567;SDS011;42456;49.956;20.004;2023-04-25T10:46:18;7.40;;;4.50;;
56567;SDS011;42456;49.956;20.004;2023-04-25T10:48:52;7.30;;;4.10;;
56567;SDS011;42456;49.956;20.004;2023-04-25T10:54:19;4.60;;;3.50;;
56567;SDS011;42456;49.956;20.004;2023-04-25T10:56:48;5.40;;;3.90;;
56567;SDS011;42456;49.956;20.004;2023-04-25T10:59:17;5.60;;;3.20;;
56567;SDS011;42456;49.956;20.004;2023-04-25T11:01:46;8.50;;;3.90;;
56567;SDS011;42456;49.956;20.004;2023-04-25T11:09:33;6.10;;;3.90;;
56567;SDS011;42456;49.956;20.004;2023-04-25T11:12:01;6.60;;;4.50;;
56567;SDS011;42456;49.956;20.004;2023-04-25T11:14:28;5.20;;;3.90;;
56567;SDS011;42456;49.956;20.004;2023-04-25T11:16:55;4.00;;;3.50;;
56567;SDS011;42456;49.956;20.004;2023-04-25T11:19:26;9.80;;;3.60;;
56567;SDS011;42456;49.956;20.004;2023-04-25T11:21:55;6.00;;;3.50;;
56567;SDS011;42456;49.956;20.004;2023-04-25T11:24:29;5.40;;;3.40;;
56567;SDS011;42456;49.956;20.004;2023-04-25T11:26:58;7.00;;;4.20;;
56567;SDS011;42456;49.956;20.004;2023-04-25T11:29:33;4.10;;;3.30;;
56567;SDS011;42456;49.956;20.004;2023-04-25T11:32:01;6.60;;;3.60;;
56567;SDS011;42456;49.956;20.004;2023-04-25T11:34:29;6.20;;;4.10;;
56567;SDS011;42456;49.956;20.004;2023-04-25T11:36:58;4.90;;;4.10;;
56567;SDS011;42456;49.956;20.004;2023-04-25T11:39:26;8.20;;;3.90;;
56567;SDS011;42456;49.956;20.004;2023-04-25T11:41:54;5.60;;;3.80;;
56567;SDS011;42456;49.956;20.004;2023-04-25T11:44:21;9.30;;;4.00;;
56567;SDS011;42456;49.956;20.004;2023-04-25T11:46:49;6.90;;;3.90;;
56567;SDS011;42456;49.956;20.004;2023-04-25T11:49:16;6.50;;;4.40;;
56567;SDS011;42456;49.956;20.004;2023-04-25T11:51:46;6.20;;;4.30;;
56567;SDS011;42456;49.956;20.004;2023-04-25T11:54:14;7.70;;;4.20;;
56567;SDS011;42456;49.956;20.004;2023-04-25T11:56:45;5.90;;;4.10;;
56567;SDS011;42456;49.956;20.004;2023-04-25T11:59:12;8.30;;;4.60;;
56567;SDS011;42456;49.956;20.004;2023-04-25T12:01:47;6.10;;;4.20;;
56567;SDS011;42456;49.956;20.004;2023-04-25T12:04:16;7.00;;;4.40;;
56567;SDS011;42456;49.956;20.004;2023-04-25T12:06:51;7.20;;;4.30;;
56567;SDS011;42456;49.956;20.004;2023-04-25T12:09:20;9.60;;;4.80;;
56567;SDS011;42456;49.956;20.004;2023-04-25T12:11:55;8.00;;;4.40;;
56567;SDS011;42456;49.956;20.004;2023-04-25T12:14:25;8.00;;;4.40;;
56567;SDS011;42456;49.956;20.004;2023-04-25T12:16:57;9.00;;;5.10;;
56567;SDS011;42456;49.956;20.004;2023-04-25T12:19:25;6.70;;;3.90;;
56567;SDS011;42456;49.956;20.004;2023-04-25T12:21:52;7.60;;;4.60;;
56567;SDS011;42456;49.956;20.004;2023-04-25T12:24:24;8.30;;;4.40;;
56567;SDS011;42456;49.956;20.004;2023-04-25T12:27:04;7.20;;;4.60;;
56567;SDS011;42456;49.956;20.004;2023-04-25T12:29:32;8.20;;;4.50;;
56567;SDS011;42456;49.956;20.004;2023-04-25T12:32:15;7.20;;;4.50;;
56567;SDS011;42456;49.956;20.004;2023-04-25T12:34:42;8.70;;;4.70;;
56567;SDS011;42456;49.956;20.004;2023-04-25T12:37:09;8.50;;;4.80;;
56567;SDS011;42456;49.956;20.004;2023-04-25T12:39:36;8.10;;;4.90;;
56567;SDS011;42456;49.956;20.004;2023-04-25T12:42:03;6.80;;;4.40;;
56567;SDS011;42456;49.956;20.004;2023-04-25T12:44:34;7.20;;;4.00;;
56567;SDS011;42456;49.956;20.004;2023-04-25T12:47:01;8.30;;;4.10;;
56567;SDS011;42456;49.956;20.004;2023-04-25T12:49:29;6.90;;;3.80;;
56567;SDS011;42456;49.956;20.004;2023-04-25T12:51:56;6.70;;;3.90;;
56567;SDS011;42456;49.956;20.004;2023-04-25T12:54:23;6.00;;;3.90;;
56567;SDS011;42456;49.956;20.004;2023-04-25T12:56:51;10.00;;;4.60;;
56567;SDS011;42456;49.956;20.004;2023-04-25T12:59:19;8.00;;;4.60;;
56567;SDS011;42456;49.956;20.004;2023-04-25T13:01:47;8.30;;;4.70;;
56567;SDS011;42456;49.956;20.004;2023-04-25T13:04:14;5.00;;;3.80;;
56567;SDS011;42456;49.956;20.004;2023-04-25T13:06:42;7.50;;;4.20;;
56567;SDS011;42456;49.956;20.004;2023-04-25T13:09:09;8.40;;;4.30;;
56567;SDS011;42456;49.956;20.004;2023-04-25T13:11:36;7.70;;;4.70;;
56567;SDS011;42456;49.956;20.004;2023-04-25T13:14:03;7.00;;;4.40;;
56567;SDS011;42456;49.956;20.004;2023-04-25T13:16:31;7.60;;;4.70;;
56567;SDS011;42456;49.956;20.004;2023-04-25T13:18:58;7.20;;;4.50;;
56567;SDS011;42456;49.956;20.004;2023-04-25T13:21:25;8.90;;;5.20;;
56567;SDS011;42456;49.956;20.004;2023-04-25T13:23:53;8.70;;;4.40;;
56567;SDS011;42456;49.956;20.004;2023-04-25T13:26:20;13.10;;;5.60;;
56567;SDS011;42456;49.956;20.004;2023-04-25T13:28:47;9.10;;;5.00;;
56567;SDS011;42456;49.956;20.004;2023-04-25T13:31:14;9.20;;;5.00;;
56567;SDS011;42456;49.956;20.004;2023-04-25T13:33:42;13.50;;;5.90;;
56567;SDS011;42456;49.956;20.004;2023-04-25T13:36:10;10.40;;;4.40;;
56567;SDS011;42456;49.956;20.004;2023-04-25T13:38:37;8.00;;;3.60;;
56567;SDS011;42456;49.956;20.004;2023-04-25T13:41:05;5.90;;;3.40;;
56567;SDS011;42456;49.956;20.004;2023-04-25T13:43:33;9.30;;;3.90;;
56567;SDS011;42456;49.956;20.004;2023-04-25T13:46:01;7.30;;;3.90;;
56567;SDS011;42456;49.956;20.004;2023-04-25T13:48:28;7.60;;;4.70;;
56567;SDS011;42456;49.956;20.004;2023-04-25T13:50:55;7.60;;;4.20;;
56567;SDS011;42456;49.956;20.004;2023-04-25T13:53:22;7.20;;;4.80;;
56567;SDS011;42456;49.956;20.004;2023-04-25T13:55:49;9.90;;;4.80;;
56567;SDS011;42456;49.956;20.004;2023-04-25T13:58:16;8.70;;;4.50;;
56567;SDS011;42456;49.956;20.004;2023-04-25T14:00:43;8.50;;;4.10;;
56567;SDS011;42456;49.956;20.004;2023-04-25T14:03:12;8.30;;;4.40;;
56567;SDS011;42456;49.956;20.004;2023-04-25T14:05:39;7.50;;;4.00;;
56567;SDS011;42456;49.956;20.004;2023-04-25T14:08:07;9.00;;;4.40;;
56567;SDS011;42456;49.956;20.004;2023-04-25T14:10:39;6.40;;;4.00;;
56567;SDS011;42456;49.956;20.004;2023-04-25T14:13:06;7.10;;;4.00;;
56567;SDS011;42456;49.956;20.004;2023-04-25T14:15:36;10.60;;;4.10;;
56567;SDS011;42456;49.956;20.004;2023-04-25T14:18:03;8.80;;;3.90;;
56567;SDS011;42456;49.956;20.004;2023-04-25T14:20:30;6.10;;;3.90;;
56567;SDS011;42456;49.956;20.004;2023-04-25T14:22:57;7.60;;;4.10;;
56567;SDS011;42456;49.956;20.004;2023-04-25T14:25:25;6.40;;;3.70;;
56567;SDS011;42456;49.956;20.004;2023-04-25T14:27:52;6.80;;;4.00;;
56567;SDS011;42456;49.956;20.004;2023-04-25T14:30:20;6.40;;;4.20;;
56567;SDS011;42456;49.956;20.004;2023-04-25T14:32:48;6.20;;;3.60;;
56567;SDS011;42456;49.956;20.004;2023-04-25T14:35:16;6.20;;;4.40;;
56567;SDS011;42456;49.956;20.004;2023-04-25T14:37:43;8.00;;;4.80;;
56567;SDS011;42456;49.956;20.004;2023-04-25T14:40:10;8.20;;;4.90;;
56567;SDS011;42456;49.956;20.004;2023-04-25T14:42:39;11.20;;;5.80;;
56567;SDS011;42456;49.956;20.004;2023-04-25T14:45:07;10.60;;;5.50;;
56567;SDS011;42456;49.956;20.004;2023-04-25T14:47:38;8.50;;;4.90;;
56567;SDS011;42456;49.956;20.004;2023-04-25T14:50:06;9.50;;;5.50;;